Buoy 44893

sailwx.info

Track history (hours):
 
Tides and Currents Weather Stations Pressure Air Temp Water Temp Dewpoint Dewpoint Depression Visibility Wind Speed Wind Dir Waves Ship Positions

Drifting buoy 44893

Last reported at 2018-Feb-23 12:00 UTC. Time now 2018-Feb-23 12:40 UTC.
Position N 31°53' W 064°04'.

Water temperature 21.1 ° C

Date/timePositionNaut miles runAvg speedWind from/ knotsBaromVisibWave heightAir tempDewpointWater temp
2018-Feb-23 12:00N 31°53' W 064°04'0 0.0 21.1
2018-Feb-23 11:15N 31°53' W 064°04'0 0.0 21.2
2018-Feb-23 10:30N 31°53' W 064°04'1 3.1 21.2
2018-Feb-23 10:15N 31°53' W 064°03'0 0.0 21.2
2018-Feb-23 09:30N 31°53' W 064°03'1 5.2 21.2
2018-Feb-23 09:15N 31°55' W 064°04'0 0.0 21.2
2018-Feb-23 09:00N 31°55' W 064°04'0 0.0 21.2
2018-Feb-23 08:45N 31°55' W 064°04'0 0.0 21.2
2018-Feb-23 07:30N 31°55' W 064°04'2 0.4 21.2
2018-Feb-23 02:45N 31°56' W 064°03'1 0.8 21.3
2018-Feb-23 01:45N 31°57' W 064°02'2 2.8 21.3
2018-Feb-23 01:00N 31°59' W 064°01'0 0.0 21.3
2018-Feb-23 00:15N 31°59' W 064°01'0 0.0 21.3
2018-Feb-23 00:00N 31°59' W 064°01'0 0.0 21.3
2018-Feb-22 23:45N 31°59' W 064°01'0 0.0 21.4
2018-Feb-22 23:30N 31°59' W 064°01'0 0.0 21.4
2018-Feb-22 23:15N 31°59' W 064°01'0 0.0 21.4
2018-Feb-22 23:00N 31°59' W 064°01'0 0.0 21.4
2018-Feb-22 22:45N 31°59' W 064°01'0 0.0 21.4
2018-Feb-22 22:00N 31°59' W 064°01'0 0.0 21.6
2018-Feb-22 21:30N 31°59' W 064°01'0 0.0 21.8
2018-Feb-22 21:00N 31°59' W 064°01'0 0.0 21.9
2018-Feb-22 20:45N 31°59' W 064°01'1 0.8 21.9
2018-Feb-22 19:15N 31°59' W 064°00'2 9.4 22.0
2018-Feb-22 19:00N 32°01' W 063°58'1 0.2 21.9
2018-Feb-22 15:30N 32°02' W 063°58'0 0.0 21.3
2018-Feb-22 15:15N 32°02' W 063°58'1 0.8 21.3
2018-Feb-22 14:30N 32°02' W 063°58'0 0.0 21.2
2018-Feb-22 14:00N 32°02' W 063°58'1 0.7 21.2
2018-Feb-22 12:15N 32°04' W 063°58'0 0.0 21.1
2018-Feb-22 12:00N 32°04' W 063°58'0 0.0 21.1
2018-Feb-22 11:45N 32°04' W 063°58'0 0.0 21.1
2018-Feb-22 11:30N 32°04' W 063°58'0 0.0 21.1
2018-Feb-22 11:00N 32°04' W 063°58'0 0.0 21.1
2018-Feb-22 10:45N 32°04' W 063°58'1 3.1 21.1
2018-Feb-22 10:30N 32°04' W 063°57'0 0.0 21.1
2018-Feb-22 10:00N 32°04' W 063°57'0 0.0 21.1
2018-Feb-22 09:30N 32°04' W 063°57'1 2.0 21.1
2018-Feb-22 09:15N 32°04' W 063°56'1 0.8 21.1
2018-Feb-22 07:45N 32°05' W 063°55'0 0.0 21.1
2018-Feb-22 07:30N 32°05' W 063°55'0 0.0 21.1
2018-Feb-22 02:15N 32°05' W 063°55'1 4.7 21.2
2018-Feb-22 02:00N 32°05' W 063°54'0 0.0 21.2
2018-Feb-22 01:30N 32°05' W 063°54'0 0.0 21.2
2018-Feb-22 01:15N 32°05' W 063°54'0 0.0 21.2
2018-Feb-22 00:30N 32°05' W 063°54'0 0.0 21.2
2018-Feb-22 00:15N 32°05' W 063°54'1 1.6 21.2
2018-Feb-21 23:45N 32°06' W 063°53'0 0.0 21.2
2018-Feb-21 23:30N 32°06' W 063°53'0 0.0 21.2
2018-Feb-21 23:15N 32°06' W 063°53'0 0.0 21.2
2018-Feb-21 22:15N 32°06' W 063°53'0 0.0 21.3
2018-Feb-21 22:00N 32°06' W 063°53'0 0.0 21.3
2018-Feb-21 21:45N 32°06' W 063°53'1 2.0 21.3
2018-Feb-21 21:30N 32°06' W 063°53'0 0.0 21.3
2018-Feb-21 21:00N 32°06' W 063°53'0 0.0 21.3
2018-Feb-21 20:45N 32°06' W 063°53'2 1.1 21.3
2018-Feb-21 19:15N 32°07' W 063°51'0 0.0 21.3
2018-Feb-21 17:45N 32°07' W 063°51'310.4 21.3
2018-Feb-21 17:30N 32°07' W 063°48'0 0.0 21.3
2018-Feb-21 15:45N 32°07' W 063°48'0 0.0 21.2
2018-Feb-21 15:00N 32°07' W 063°48'0 0.0 21.2
2018-Feb-21 14:45N 32°07' W 063°48'0 0.0 21.2
2018-Feb-21 14:15N 32°07' W 063°48'1 4.1 21.2
2018-Feb-21 14:00N 32°07' W 063°47'0 0.0 21.2
2018-Feb-21 13:15N 32°07' W 063°47'0 0.0 21.3
2018-Feb-21 13:00N 32°07' W 063°47'1 1.0 21.3
2018-Feb-21 12:30N 32°07' W 063°46'1 3.1 21.3
2018-Feb-21 12:15N 32°08' W 063°47'0 0.0 21.3
2018-Feb-21 12:00N 32°08' W 063°47'0 0.0 21.3
2018-Feb-21 11:45N 32°08' W 063°47'1 4.7 21.3
2018-Feb-21 11:30N 32°08' W 063°46'1 1.0 21.3
2018-Feb-21 10:45N 32°08' W 063°45'1 2.0 21.4
2018-Feb-21 10:30N 32°08' W 063°46'0 0.0 21.4
2018-Feb-21 10:15N 32°08' W 063°46'1 2.4 21.4
2018-Feb-21 09:45N 32°08' W 063°44'1 4.1 21.4
2018-Feb-21 09:30N 32°08' W 063°43'0 0.0 21.4
2018-Feb-21 08:15N 32°08' W 063°43'1 2.0 21.3
2018-Feb-21 08:00N 32°08' W 063°44'415.0 21.3
2018-Feb-21 07:45N 32°10' W 063°40'2 0.3 21.3
2018-Feb-21 02:30N 32°10' W 063°38'0 0.0 21.5
2018-Feb-21 02:15N 32°10' W 063°38'1 2.4 21.5
2018-Feb-21 01:45N 32°10' W 063°37'0 0.0 21.5
2018-Feb-21 01:30N 32°10' W 063°37'1 1.0 21.5
2018-Feb-21 00:45N 32°11' W 063°37'1 1.0 21.6
2018-Feb-21 00:15N 32°11' W 063°37'0 0.0 21.6
2018-Feb-21 00:00N 32°11' W 063°37'1 5.2 21.6
2018-Feb-20 23:45N 32°12' W 063°36'0 0.0 21.6
2018-Feb-20 22:45N 32°12' W 063°36'1 2.0 21.6
2018-Feb-20 22:30N 32°12' W 063°35'1 2.0 21.6
2018-Feb-20 22:15N 32°12' W 063°35'1 3.1 21.6
2018-Feb-20 22:00N 32°13' W 063°34'0 0.0 21.6
2018-Feb-20 21:45N 32°13' W 063°34'1 1.6 21.6
2018-Feb-20 21:15N 32°13' W 063°34'0 0.0 21.6
2018-Feb-20 21:00N 32°13' W 063°34'0 0.0 21.6
2018-Feb-20 20:45N 32°13' W 063°34'2 1.6 21.6
2018-Feb-20 19:30N 32°14' W 063°32'0 0.0 21.6
2018-Feb-20 19:15N 32°14' W 063°32'2 1.6 21.6
2018-Feb-20 17:45N 32°16' W 063°30'1 0.2 21.4
2018-Feb-20 15:15N 32°16' W 063°29'0 0.0 21.2
2018-Feb-20 15:00N 32°16' W 063°29'0 0.0 21.2
2018-Feb-20 14:30N 32°16' W 063°29'1 4.1 21.2
2018-Feb-20 14:15N 32°16' W 063°28'0 0.0 21.1
2018-Feb-20 13:30N 32°16' W 063°28'1 1.0 21.1
2018-Feb-20 12:45N 32°17' W 063°28'1 2.4 21.1
2018-Feb-20 12:30N 32°16' W 063°28'0 0.0 21.1
2018-Feb-20 12:15N 32°16' W 063°28'2 1.2 21.1
2018-Feb-20 11:00N 32°16' W 063°26'1 2.0 21.1
2018-Feb-20 10:45N 32°16' W 063°25'0 0.0 21.1
2018-Feb-20 10:30N 32°16' W 063°25'1 4.7 21.1
2018-Feb-20 10:15N 32°17' W 063°24'2 3.3 21.1
2018-Feb-20 09:45N 32°16' W 063°22'0 0.0 21.1
2018-Feb-20 08:45N 32°16' W 063°22'1 2.4 21.1
2018-Feb-20 08:30N 32°17' W 063°22'0 0.0 21.1
2018-Feb-20 08:15N 32°17' W 063°22'624.5 21.1
2018-Feb-20 08:00N 32°17' W 063°15'0 0.0 21.1
2018-Feb-20 02:45N 32°17' W 063°15'0 0.0 21.1
2018-Feb-20 02:15N 32°17' W 063°15'2 6.1 21.1
2018-Feb-20 02:00N 32°17' W 063°13'0 0.0 21.1
2018-Feb-20 01:15N 32°17' W 063°13'0 0.0 21.1
2018-Feb-20 01:00N 32°17' W 063°13'1 1.0 21.1
2018-Feb-20 00:30N 32°17' W 063°13'0 0.0 21.1
2018-Feb-20 00:15N 32°17' W 063°13'1 3.1 21.1
2018-Feb-20 00:00N 32°18' W 063°12'0 0.0 21.1
2018-Feb-19 23:30N 32°18' W 063°12'0 0.0 21.1
2018-Feb-19 23:15N 32°18' W 063°12'1 2.0 21.2
2018-Feb-19 23:00N 32°18' W 063°11'1 2.4 21.1
2018-Feb-19 22:30N 32°19' W 063°10'0 0.0 21.2
2018-Feb-19 22:15N 32°19' W 063°10'2 2.2 21.2
2018-Feb-19 21:30N 32°18' W 063°08'0 0.0 21.2
2018-Feb-19 21:15N 32°18' W 063°08'1 0.3 21.2
2018-Feb-19 19:45N 32°18' W 063°09'2 8.1 21.2
2018-Feb-19 19:30N 32°18' W 063°07'3 2.1 21.2
2018-Feb-19 18:00N 32°19' W 063°03'3 0.8 21.2
2018-Feb-19 14:45N 32°19' W 063°00'0 0.0 21.2
2018-Feb-19 14:00N 32°19' W 063°00'0 0.0 21.2
2018-Feb-19 13:45N 32°19' W 063°00'0 0.0 21.2
2018-Feb-19 13:15N 32°19' W 063°00'1 2.0 21.2
2018-Feb-19 12:45N 32°19' W 062°59'1 2.6 21.2
2018-Feb-19 12:15N 32°20' W 062°58'0 0.0 21.2
2018-Feb-19 12:00N 32°20' W 062°58'0 0.0 21.2
2018-Feb-19 11:15N 32°20' W 062°58'1 2.4 21.2
2018-Feb-19 11:00N 32°19' W 062°58'0 0.0 21.2
2018-Feb-19 10:45N 32°19' W 062°58'2 3.1 21.2
2018-Feb-19 10:00N 32°20' W 062°56'0 0.0 21.2
2018-Feb-19 09:15N 32°20' W 062°56'2 6.1 21.2
2018-Feb-19 09:00N 32°20' W 062°54'0 0.0 21.2
2018-Feb-19 08:30N 32°20' W 062°54'520.2 21.2
2018-Feb-19 08:15N 32°24' W 062°50'0 0.0 21.2
2018-Feb-19 06:45N 32°24' W 062°50'0 0.0 21.3
2018-Feb-19 06:30N 32°24' W 062°50'0 0.0 21.3
2018-Feb-19 02:30N 32°24' W 062°50'0 0.0 21.3
2018-Feb-19 02:15N 32°24' W 062°50'2 2.2 21.3
2018-Feb-19 01:30N 32°25' W 062°48'0 0.0 21.3
2018-Feb-19 01:15N 32°25' W 062°48'0 0.0 21.3
2018-Feb-19 00:45N 32°25' W 062°48'0 0.0 21.4
2018-Feb-19 00:30N 32°25' W 062°48'1 4.1 21.4
2018-Feb-19 00:15N 32°25' W 062°47'1 1.6 21.5
2018-Feb-18 23:45N 32°25' W 062°47'1 2.0 21.6
2018-Feb-18 23:30N 32°25' W 062°47'0 0.0 21.6
2018-Feb-18 23:00N 32°25' W 062°47'1 2.0 21.6
2018-Feb-18 22:45N 32°25' W 062°46'0 0.0 21.6
2018-Feb-18 22:30N 32°25' W 062°46'1 2.4 21.6
2018-Feb-18 22:00N 32°26' W 062°45'1 4.1 21.7
2018-Feb-18 21:45N 32°26' W 062°46'1 2.0 21.7
2018-Feb-18 21:15N 32°26' W 062°45'0 0.0 21.7
2018-Feb-18 21:00N 32°26' W 062°45'0 0.0 21.7
2018-Feb-18 20:00N 32°26' W 062°45'0 0.0 21.7
2018-Feb-18 19:45N 32°26' W 062°45'0 0.0 21.7
2018-Feb-18 18:15N 32°26' W 062°45'1 4.1 21.7
2018-Feb-18 18:00N 32°26' W 062°44'0 0.0 21.7
2018-Feb-18 15:15N 32°26' W 062°44'1 2.4 21.6
2018-Feb-18 15:00N 32°25' W 062°44'1 0.8 21.6
2018-Feb-18 14:15N 32°26' W 062°44'1 1.0 21.6
2018-Feb-18 13:30N 32°25' W 062°43'0 0.0 21.6
2018-Feb-18 13:15N 32°25' W 062°43'1 2.0 21.6
2018-Feb-18 13:00N 32°25' W 062°43'0 0.0 21.6
2018-Feb-18 12:45N 32°25' W 062°43'1 3.1 21.6
2018-Feb-18 12:30N 32°25' W 062°43'0 0.0 21.6
2018-Feb-18 11:45N 32°25' W 062°43'1 2.4 21.6
2018-Feb-18 11:15N 32°24' W 062°42'0 0.0 21.5
2018-Feb-18 10:00N 32°24' W 062°42'1 3.1 21.5
2018-Feb-18 09:45N 32°23' W 062°41'0 0.0 21.5
2018-Feb-18 09:30N 32°23' W 062°41'2 1.6 21.5
2018-Feb-18 08:30N 32°22' W 062°40'0 0.0 21.4
2018-Feb-18 08:15N 32°22' W 062°40'0 0.0 21.4
2018-Feb-18 08:00N 32°22' W 062°40'5 4.4 21.4
2018-Feb-18 06:45N 32°19' W 062°35'0 0.0 21.5
2018-Feb-18 02:00N 32°19' W 062°35'1 4.1 21.6
2018-Feb-18 01:45N 32°19' W 062°34'0 0.0 21.6
2018-Feb-18 01:15N 32°19' W 062°34'1 4.1 21.6
2018-Feb-18 01:00N 32°19' W 062°32'0 0.0 21.6
2018-Feb-18 00:30N 32°19' W 062°32'2 6.5 21.6
2018-Feb-18 00:15N 32°19' W 062°31'0 0.0 21.6
2018-Feb-18 00:00N 32°19' W 062°31'0 0.0 21.6
2018-Feb-17 23:30N 32°19' W 062°31'0 0.0 21.6
2018-Feb-17 23:15N 32°19' W 062°31'1 2.0 21.6
2018-Feb-17 23:00N 32°19' W 062°30'312.4 21.6
2018-Feb-17 22:45N 32°18' W 062°26'0 0.0 21.6
2018-Feb-17 22:30N 32°18' W 062°26'0 0.0 21.6
2018-Feb-17 22:15N 32°18' W 062°26'0 0.0 21.6
2018-Feb-17 21:30N 32°18' W 062°26'0 0.0 21.7
2018-Feb-17 20:45N 32°18' W 062°26'0 0.0 21.7
2018-Feb-17 20:15N 32°18' W 062°26'1 4.1 21.7
2018-Feb-17 20:00N 32°18' W 062°25'0 0.0 21.7
2018-Feb-17 18:30N 32°18' W 062°25'2 7.8 21.7
2018-Feb-17 18:15N 32°17' W 062°23'1 0.3 21.7
2018-Feb-17 15:30N 32°16' W 062°23'0 0.0 21.6
2018-Feb-17 14:30N 32°16' W 062°23'0 0.0 21.5
2018-Feb-17 14:00N 32°16' W 062°23'1 2.0 21.5
2018-Feb-17 13:45N 32°16' W 062°22'0 0.0 21.5
2018-Feb-17 13:15N 32°16' W 062°22'1 2.0 21.5
2018-Feb-17 13:00N 32°16' W 062°23'0 0.0 21.5
2018-Feb-17 12:45N 32°16' W 062°23'1 1.4 21.5
2018-Feb-17 12:00N 32°16' W 062°22'0 0.0 21.4
2018-Feb-17 11:45N 32°16' W 062°22'1 2.0 21.4
2018-Feb-17 11:30N 32°16' W 062°21'0 0.0 21.4
2018-Feb-17 11:15N 32°16' W 062°21'0 0.0 21.4
2018-Feb-17 10:30N 32°16' W 062°21'1 2.4 21.3
2018-Feb-17 10:15N 32°16' W 062°21'0 0.0 21.3
2018-Feb-17 10:00N 32°16' W 062°21'1 0.4 21.3
2018-Feb-17 08:45N 32°16' W 062°22'1 2.4 21.2
2018-Feb-17 08:30N 32°15' W 062°22'4 2.8 21.2
2018-Feb-17 07:00N 32°11' W 062°22'0 0.0 21.1
2018-Feb-17 02:15N 32°11' W 062°22'1 2.4 21.1
2018-Feb-17 02:00N 32°10' W 062°22'1 1.0 21.1
2018-Feb-17 01:30N 32°10' W 062°21'0 0.0 21.1
2018-Feb-17 01:15N 32°10' W 062°21'1 1.6 21.1
2018-Feb-17 00:45N 32°10' W 062°20'1 2.4 21.2
2018-Feb-17 00:30N 32°09' W 062°20'1 0.8 21.2
2018-Feb-16 23:45N 32°08' W 062°20'0 0.0 21.2
2018-Feb-16 23:30N 32°08' W 062°20'1 3.1 21.2
2018-Feb-16 23:15N 32°09' W 062°20'1 3.1 21.2
2018-Feb-16 23:00N 32°08' W 062°19'0 0.0 21.2
2018-Feb-16 22:45N 32°08' W 062°19'0 0.0 21.2
2018-Feb-16 22:00N 32°08' W 062°19'0 0.0 21.2
2018-Feb-16 21:45N 32°08' W 062°19'1 5.2 21.2
2018-Feb-16 21:30N 32°07' W 062°20'0 0.0 21.2
2018-Feb-16 21:15N 32°07' W 062°20'1 0.8 21.2
2018-Feb-16 20:15N 32°07' W 062°19'0 0.0 21.2
2018-Feb-16 20:00N 32°07' W 062°19'0 0.0 21.2
2018-Feb-16 18:45N 32°07' W 062°19'1 5.2 21.2
2018-Feb-16 18:30N 32°05' W 062°19'0 0.0 21.2
2018-Feb-16 15:00N 32°05' W 062°19'1 4.8 21.1
2018-Feb-16 14:45N 32°04' W 062°19'0 0.0 21.1
2018-Feb-16 14:15N 32°04' W 062°19'0 0.0 21.1
2018-Feb-16 14:00N 32°04' W 062°19'1 1.0 21.1
2018-Feb-16 13:15N 32°04' W 062°18'1 0.8 21.1
2018-Feb-16 12:30N 32°03' W 062°18'0 0.0 21.1
2018-Feb-16 12:15N 32°03' W 062°18'1 1.0 21.1
2018-Feb-16 11:45N 32°03' W 062°19'0 0.0 21.1
2018-Feb-16 11:30N 32°03' W 062°19'1 0.8 21.1
2018-Feb-16 10:45N 32°02' W 062°19'1 3.1 21.1
2018-Feb-16 10:30N 32°02' W 062°18'1 0.9 21.1
2018-Feb-16 09:00N 32°01' W 062°19'0 0.0 21.1
2018-Feb-16 08:45N 32°01' W 062°19'0 0.0 21.1
2018-Feb-16 07:15N 32°01' W 062°19'519.3 21.1
2018-Feb-16 07:00N 31°56' W 062°19'2 0.3 21.1
2018-Feb-16 02:30N 31°56' W 062°17'1 1.7 21.2
2018-Feb-16 01:45N 31°55' W 062°17'0 0.0 21.2
2018-Feb-16 01:00N 31°55' W 062°17'0 0.0 21.2
2018-Feb-16 00:45N 31°55' W 062°17'0 0.0 21.2
2018-Feb-16 00:15N 31°55' W 062°17'1 2.0 21.2
2018-Feb-16 00:00N 31°55' W 062°16'0 0.0 21.3
2018-Feb-15 23:30N 31°55' W 062°16'1 3.1 21.3
2018-Feb-15 23:15N 31°54' W 062°16'0 0.0 21.3
2018-Feb-15 23:00N 31°54' W 062°16'0 0.0 21.3
2018-Feb-15 22:30N 31°54' W 062°16'1 2.0 21.3
2018-Feb-15 22:15N 31°54' W 062°15'1 3.1 21.3
2018-Feb-15 22:00N 31°53' W 062°14'0 0.0 21.3
2018-Feb-15 21:45N 31°53' W 062°14'0 0.0 21.4
2018-Feb-15 21:30N 31°53' W 062°14'0 0.0 21.4
2018-Feb-15 20:45N 31°53' W 062°14'0 0.0 21.4
2018-Feb-15 20:30N 31°53' W 062°14'0 0.0 21.4
2018-Feb-15 20:15N 31°53' W 062°14'1 0.3 21.4
2018-Feb-15 18:45N 31°53' W 062°15'1 0.2 21.5
2018-Feb-15 15:15N 31°53' W 062°15'1 0.8 21.2
2018-Feb-15 14:30N 31°52' W 062°15'1 0.7 21.2
2018-Feb-15 13:45N 31°52' W 062°16'1 3.1 21.1
2018-Feb-15 13:30N 31°52' W 062°15'0 0.0 21.1
2018-Feb-15 13:00N 31°52' W 062°15'1 3.1 21.1
2018-Feb-15 12:45N 31°51' W 062°16'0 0.0 21.1
2018-Feb-15 12:00N 31°51' W 062°16'1 2.4 21.1
2018-Feb-15 11:45N 31°50' W 062°16'1 1.0 21.1
2018-Feb-15 11:15N 31°50' W 062°15'0 0.0 21.1
2018-Feb-15 11:00N 31°50' W 062°15'1 0.8 21.1
2018-Feb-15 09:30N 31°49' W 062°15'1 2.6 21.1
2018-Feb-15 09:00N 31°48' W 062°14'0 0.0 21.1
2018-Feb-15 08:00N 31°48' W 062°14'0 0.0 21.1
2018-Feb-15 07:45N 31°48' W 062°14'1 2.4 21.1
2018-Feb-15 07:30N 31°49' W 062°14'417.1 21.1
2018-Feb-15 07:15N 31°46' W 062°11'0 0.0 21.1
2018-Feb-15 02:45N 31°46' W 062°11'0 0.0 21.1
2018-Feb-15 02:15N 31°46' W 062°11'1 2.4 21.1
2018-Feb-15 02:00N 31°45' W 062°11'1 1.4 21.1
2018-Feb-15 01:15N 31°45' W 062°10'0 0.0 21.1
2018-Feb-15 01:00N 31°45' W 062°10'0 0.0 21.1
2018-Feb-15 00:30N 31°45' W 062°10'0 0.0 21.1
2018-Feb-15 00:15N 31°45' W 062°10'0 0.0 21.1
2018-Feb-15 00:00N 31°45' W 062°10'1 2.0 21.1
2018-Feb-14 23:30N 31°45' W 062°08'0 0.0 21.1
2018-Feb-14 23:15N 31°45' W 062°08'1 4.8 21.1
2018-Feb-14 23:00N 31°44' W 062°08'0 0.0 21.2
2018-Feb-14 22:45N 31°44' W 062°08'1 2.0 21.2
2018-Feb-14 22:30N 31°44' W 062°08'0 0.0 21.2
2018-Feb-14 22:15N 31°44' W 062°08'2 3.2 21.2
2018-Feb-14 21:45N 31°43' W 062°07'1 0.8 21.2
2018-Feb-14 20:45N 31°42' W 062°07'0 0.0 21.2
2018-Feb-14 20:30N 31°42' W 062°07'2 1.6 21.2
2018-Feb-14 19:00N 31°40' W 062°08'0 0.0 21.2
2018-Feb-14 18:45N 31°40' W 062°08'0 0.0 21.2
2018-Feb-14 15:30N 31°40' W 062°08'0 0.0 21.1
2018-Feb-14 15:00N 31°40' W 062°08'1 2.4 21.1
2018-Feb-14 14:45N 31°39' W 062°08'0 0.0 21.1
2018-Feb-14 14:00N 31°39' W 062°08'1 2.4 21.1
2018-Feb-14 13:45N 31°38' W 062°08'0 0.0 21.1
2018-Feb-14 13:15N 31°38' W 062°08'1 5.2 21.1
2018-Feb-14 13:00N 31°37' W 062°07'1 1.6 21.1
2018-Feb-14 12:15N 31°38' W 062°08'1 2.4 21.1
2018-Feb-14 12:00N 31°37' W 062°08'0 0.0 21.1
2018-Feb-14 11:45N 31°37' W 062°08'0 0.0 21.1
2018-Feb-14 11:30N 31°37' W 062°08'1 1.3 21.1
2018-Feb-14 10:30N 31°36' W 062°09'0 0.0 21.2
2018-Feb-14 10:15N 31°36' W 062°09'0 0.0 21.2
2018-Feb-14 10:00N 31°36' W 062°09'1 1.7 21.2
2018-Feb-14 09:15N 31°35' W 062°08'0 0.0 21.2
2018-Feb-14 08:30N 31°35' W 062°08'1 2.0 21.2
2018-Feb-14 08:15N 31°35' W 062°09'0 0.0 21.2
2018-Feb-14 07:45N 31°35' W 062°09'2 7.2 21.2
2018-Feb-14 07:30N 31°33' W 062°09'0 0.0 21.2
2018-Feb-14 02:30N 31°33' W 062°09'1 0.8 21.2
2018-Feb-14 01:30N 31°32' W 062°10'0 0.0 21.2
2018-Feb-14 01:00N 31°32' W 062°10'1 2.0 21.2
2018-Feb-14 00:45N 31°32' W 062°09'0 0.0 21.2
2018-Feb-14 00:00N 31°32' W 062°09'1 4.1 21.2
2018-Feb-13 23:45N 31°32' W 062°10'0 0.0 21.2
2018-Feb-13 23:30N 31°32' W 062°10'0 0.0 21.2
2018-Feb-13 23:15N 31°32' W 062°10'0 0.0 21.2
2018-Feb-13 23:00N 31°32' W 062°10'0 0.0 21.3
2018-Feb-13 22:45N 31°32' W 062°10'1 0.8 21.3
2018-Feb-13 22:00N 31°32' W 062°10'0 0.0 21.3
2018-Feb-13 21:45N 31°32' W 062°10'0 0.0 21.3
2018-Feb-13 21:30N 31°32' W 062°10'1 3.2 21.3
2018-Feb-13 21:15N 31°31' W 062°11'0 0.0 21.4
2018-Feb-13 21:00N 31°31' W 062°11'0 0.0 21.4
2018-Feb-13 20:45N 31°31' W 062°11'1 0.7 21.4
2018-Feb-13 19:15N 31°31' W 062°12'0 0.0 21.4
2018-Feb-13 19:00N 31°31' W 062°12'4 1.0 21.4
2018-Feb-13 15:15N 31°28' W 062°14'0 0.0 21.2
2018-Feb-13 15:00N 31°28' W 062°14'0 0.0 21.2
2018-Feb-13 14:15N 31°28' W 062°14'0 0.0 21.2
2018-Feb-13 14:00N 31°28' W 062°14'1 2.4 21.2
2018-Feb-13 13:30N 31°28' W 062°16'0 0.0 21.1
2018-Feb-13 12:15N 31°28' W 062°16'0 0.0 21.1
2018-Feb-13 12:00N 31°28' W 062°16'   21.1
Track history (hours):
 
Tides and Currents Weather Stations Pressure Air Temp Water Temp Dewpoint Dewpoint Depression Visibility Wind Speed Wind Dir Waves Ship Positions

Drifting buoy 44893

Last reported at 2018-Feb-23 12:00 UTC. Time now 2018-Feb-23 12:40 UTC.
Position N 31°53' W 064°04'.

Water temperature 21.1 ° C

Date/timePositionNaut miles runAvg speedWind from/ knotsBaromVisibWave heightAir tempDewpointWater temp
2018-Feb-23 12:00N 31°53' W 064°04'0 0.0 21.1
2018-Feb-23 11:15N 31°53' W 064°04'0 0.0 21.2
2018-Feb-23 10:30N 31°53' W 064°04'1 3.1 21.2
2018-Feb-23 10:15N 31°53' W 064°03'0 0.0 21.2
2018-Feb-23 09:30N 31°53' W 064°03'1 5.2 21.2
2018-Feb-23 09:15N 31°55' W 064°04'0 0.0 21.2
2018-Feb-23 09:00N 31°55' W 064°04'0 0.0 21.2
2018-Feb-23 08:45N 31°55' W 064°04'0 0.0 21.2
2018-Feb-23 07:30N 31°55' W 064°04'2 0.4 21.2
2018-Feb-23 02:45N 31°56' W 064°03'1 0.8 21.3
2018-Feb-23 01:45N 31°57' W 064°02'2 2.8 21.3
2018-Feb-23 01:00N 31°59' W 064°01'0 0.0 21.3
2018-Feb-23 00:15N 31°59' W 064°01'0 0.0 21.3
2018-Feb-23 00:00N 31°59' W 064°01'0 0.0 21.3
2018-Feb-22 23:45N 31°59' W 064°01'0 0.0 21.4
2018-Feb-22 23:30N 31°59' W 064°01'0 0.0 21.4
2018-Feb-22 23:15N 31°59' W 064°01'0 0.0 21.4
2018-Feb-22 23:00N 31°59' W 064°01'0 0.0 21.4
2018-Feb-22 22:45N 31°59' W 064°01'0 0.0 21.4
2018-Feb-22 22:00N 31°59' W 064°01'0 0.0 21.6
2018-Feb-22 21:30N 31°59' W 064°01'0 0.0 21.8
2018-Feb-22 21:00N 31°59' W 064°01'0 0.0 21.9
2018-Feb-22 20:45N 31°59' W 064°01'1 0.8 21.9
2018-Feb-22 19:15N 31°59' W 064°00'2 9.4 22.0
2018-Feb-22 19:00N 32°01' W 063°58'1 0.2 21.9
2018-Feb-22 15:30N 32°02' W 063°58'0 0.0 21.3
2018-Feb-22 15:15N 32°02' W 063°58'1 0.8 21.3
2018-Feb-22 14:30N 32°02' W 063°58'0 0.0 21.2
2018-Feb-22 14:00N 32°02' W 063°58'1 0.7 21.2
2018-Feb-22 12:15N 32°04' W 063°58'0 0.0 21.1
2018-Feb-22 12:00N 32°04' W 063°58'0 0.0 21.1
2018-Feb-22 11:45N 32°04' W 063°58'0 0.0 21.1
2018-Feb-22 11:30N 32°04' W 063°58'0 0.0 21.1
2018-Feb-22 11:00N 32°04' W 063°58'0 0.0 21.1
2018-Feb-22 10:45N 32°04' W 063°58'1 3.1 21.1
2018-Feb-22 10:30N 32°04' W 063°57'0 0.0 21.1
2018-Feb-22 10:00N 32°04' W 063°57'0 0.0 21.1
2018-Feb-22 09:30N 32°04' W 063°57'1 2.0 21.1
2018-Feb-22 09:15N 32°04' W 063°56'1 0.8 21.1
2018-Feb-22 07:45N 32°05' W 063°55'0 0.0 21.1
2018-Feb-22 07:30N 32°05' W 063°55'0 0.0 21.1
2018-Feb-22 02:15N 32°05' W 063°55'1 4.7 21.2
2018-Feb-22 02:00N 32°05' W 063°54'0 0.0 21.2
2018-Feb-22 01:30N 32°05' W 063°54'0 0.0 21.2
2018-Feb-22 01:15N 32°05' W 063°54'0 0.0 21.2
2018-Feb-22 00:30N 32°05' W 063°54'0 0.0 21.2
2018-Feb-22 00:15N 32°05' W 063°54'1 1.6 21.2
2018-Feb-21 23:45N 32°06' W 063°53'0 0.0 21.2
2018-Feb-21 23:30N 32°06' W 063°53'0 0.0 21.2
2018-Feb-21 23:15N 32°06' W 063°53'0 0.0 21.2
2018-Feb-21 22:15N 32°06' W 063°53'0 0.0 21.3
2018-Feb-21 22:00N 32°06' W 063°53'0 0.0 21.3
2018-Feb-21 21:45N 32°06' W 063°53'1 2.0 21.3
2018-Feb-21 21:30N 32°06' W 063°53'0 0.0 21.3
2018-Feb-21 21:00N 32°06' W 063°53'0 0.0 21.3
2018-Feb-21 20:45N 32°06' W 063°53'2 1.1 21.3
2018-Feb-21 19:15N 32°07' W 063°51'0 0.0 21.3
2018-Feb-21 17:45N 32°07' W 063°51'310.4 21.3
2018-Feb-21 17:30N 32°07' W 063°48'0 0.0 21.3
2018-Feb-21 15:45N 32°07' W 063°48'0 0.0 21.2
2018-Feb-21 15:00N 32°07' W 063°48'0 0.0 21.2
2018-Feb-21 14:45N 32°07' W 063°48'0 0.0 21.2
2018-Feb-21 14:15N 32°07' W 063°48'1 4.1 21.2
2018-Feb-21 14:00N 32°07' W 063°47'0 0.0 21.2
2018-Feb-21 13:15N 32°07' W 063°47'0 0.0 21.3
2018-Feb-21 13:00N 32°07' W 063°47'1 1.0 21.3
2018-Feb-21 12:30N 32°07' W 063°46'1 3.1 21.3
2018-Feb-21 12:15N 32°08' W 063°47'0 0.0 21.3
2018-Feb-21 12:00N 32°08' W 063°47'0 0.0 21.3
2018-Feb-21 11:45N 32°08' W 063°47'1 4.7 21.3
2018-Feb-21 11:30N 32°08' W 063°46'1 1.0 21.3
2018-Feb-21 10:45N 32°08' W 063°45'1 2.0 21.4
2018-Feb-21 10:30N 32°08' W 063°46'0 0.0 21.4
2018-Feb-21 10:15N 32°08' W 063°46'1 2.4 21.4
2018-Feb-21 09:45N 32°08' W 063°44'1 4.1 21.4
2018-Feb-21 09:30N 32°08' W 063°43'0 0.0 21.4
2018-Feb-21 08:15N 32°08' W 063°43'1 2.0 21.3
2018-Feb-21 08:00N 32°08' W 063°44'415.0 21.3
2018-Feb-21 07:45N 32°10' W 063°40'2 0.3 21.3
2018-Feb-21 02:30N 32°10' W 063°38'0 0.0 21.5
2018-Feb-21 02:15N 32°10' W 063°38'1 2.4 21.5
2018-Feb-21 01:45N 32°10' W 063°37'0 0.0 21.5
2018-Feb-21 01:30N 32°10' W 063°37'1 1.0 21.5
2018-Feb-21 00:45N 32°11' W 063°37'1 1.0 21.6
2018-Feb-21 00:15N 32°11' W 063°37'0 0.0 21.6
2018-Feb-21 00:00N 32°11' W 063°37'1 5.2 21.6
2018-Feb-20 23:45N 32°12' W 063°36'0 0.0 21.6
2018-Feb-20 22:45N 32°12' W 063°36'1 2.0 21.6
2018-Feb-20 22:30N 32°12' W 063°35'1 2.0 21.6
2018-Feb-20 22:15N 32°12' W 063°35'1 3.1 21.6
2018-Feb-20 22:00N 32°13' W 063°34'0 0.0 21.6
2018-Feb-20 21:45N 32°13' W 063°34'1 1.6 21.6
2018-Feb-20 21:15N 32°13' W 063°34'0 0.0 21.6
2018-Feb-20 21:00N 32°13' W 063°34'0 0.0 21.6
2018-Feb-20 20:45N 32°13' W 063°34'2 1.6 21.6
2018-Feb-20 19:30N 32°14' W 063°32'0 0.0 21.6
2018-Feb-20 19:15N 32°14' W 063°32'2 1.6 21.6
2018-Feb-20 17:45N 32°16' W 063°30'1 0.2 21.4
2018-Feb-20 15:15N 32°16' W 063°29'0 0.0 21.2
2018-Feb-20 15:00N 32°16' W 063°29'0 0.0 21.2
2018-Feb-20 14:30N 32°16' W 063°29'1 4.1 21.2
2018-Feb-20 14:15N 32°16' W 063°28'0 0.0 21.1
2018-Feb-20 13:30N 32°16' W 063°28'1 1.0 21.1
2018-Feb-20 12:45N 32°17' W 063°28'1 2.4 21.1
2018-Feb-20 12:30N 32°16' W 063°28'0 0.0 21.1
2018-Feb-20 12:15N 32°16' W 063°28'2 1.2 21.1
2018-Feb-20 11:00N 32°16' W 063°26'1 2.0 21.1
2018-Feb-20 10:45N 32°16' W 063°25'0 0.0 21.1
2018-Feb-20 10:30N 32°16' W 063°25'1 4.7 21.1
2018-Feb-20 10:15N 32°17' W 063°24'2 3.3 21.1
2018-Feb-20 09:45N 32°16' W 063°22'0 0.0 21.1
2018-Feb-20 08:45N 32°16' W 063°22'1 2.4 21.1
2018-Feb-20 08:30N 32°17' W 063°22'0 0.0 21.1
2018-Feb-20 08:15N 32°17' W 063°22'624.5 21.1
2018-Feb-20 08:00N 32°17' W 063°15'0 0.0 21.1
2018-Feb-20 02:45N 32°17' W 063°15'0 0.0 21.1
2018-Feb-20 02:15N 32°17' W 063°15'2 6.1 21.1
2018-Feb-20 02:00N 32°17' W 063°13'0 0.0 21.1
2018-Feb-20 01:15N 32°17' W 063°13'0 0.0 21.1
2018-Feb-20 01:00N 32°17' W 063°13'1 1.0 21.1
2018-Feb-20 00:30N 32°17' W 063°13'0 0.0 21.1
2018-Feb-20 00:15N 32°17' W 063°13'1 3.1 21.1
2018-Feb-20 00:00N 32°18' W 063°12'0 0.0 21.1
2018-Feb-19 23:30N 32°18' W 063°12'0 0.0 21.1
2018-Feb-19 23:15N 32°18' W 063°12'1 2.0 21.2
2018-Feb-19 23:00N 32°18' W 063°11'1 2.4 21.1
2018-Feb-19 22:30N 32°19' W 063°10'0 0.0 21.2
2018-Feb-19 22:15N 32°19' W 063°10'2 2.2 21.2
2018-Feb-19 21:30N 32°18' W 063°08'0 0.0 21.2
2018-Feb-19 21:15N 32°18' W 063°08'1 0.3 21.2
2018-Feb-19 19:45N 32°18' W 063°09'2 8.1 21.2
2018-Feb-19 19:30N 32°18' W 063°07'3 2.1 21.2
2018-Feb-19 18:00N 32°19' W 063°03'3 0.8 21.2
2018-Feb-19 14:45N 32°19' W 063°00'0 0.0 21.2
2018-Feb-19 14:00N 32°19' W 063°00'0 0.0 21.2
2018-Feb-19 13:45N 32°19' W 063°00'0 0.0 21.2
2018-Feb-19 13:15N 32°19' W 063°00'1 2.0 21.2
2018-Feb-19 12:45N 32°19' W 062°59'1 2.6 21.2
2018-Feb-19 12:15N 32°20' W 062°58'0 0.0 21.2
2018-Feb-19 12:00N 32°20' W 062°58'0 0.0 21.2
2018-Feb-19 11:15N 32°20' W 062°58'1 2.4 21.2
2018-Feb-19 11:00N 32°19' W 062°58'0 0.0 21.2
2018-Feb-19 10:45N 32°19' W 062°58'2 3.1 21.2
2018-Feb-19 10:00N 32°20' W 062°56'0 0.0 21.2
2018-Feb-19 09:15N 32°20' W 062°56'2 6.1 21.2
2018-Feb-19 09:00N 32°20' W 062°54'0 0.0 21.2
2018-Feb-19 08:30N 32°20' W 062°54'520.2 21.2
2018-Feb-19 08:15N 32°24' W 062°50'0 0.0 21.2
2018-Feb-19 06:45N 32°24' W 062°50'0 0.0 21.3
2018-Feb-19 06:30N 32°24' W 062°50'0 0.0 21.3
2018-Feb-19 02:30N 32°24' W 062°50'0 0.0 21.3
2018-Feb-19 02:15N 32°24' W 062°50'2 2.2 21.3
2018-Feb-19 01:30N 32°25' W 062°48'0 0.0 21.3
2018-Feb-19 01:15N 32°25' W 062°48'0 0.0 21.3
2018-Feb-19 00:45N 32°25' W 062°48'0 0.0 21.4
2018-Feb-19 00:30N 32°25' W 062°48'1 4.1 21.4
2018-Feb-19 00:15N 32°25' W 062°47'1 1.6 21.5
2018-Feb-18 23:45N 32°25' W 062°47'1 2.0 21.6
2018-Feb-18 23:30N 32°25' W 062°47'0 0.0 21.6
2018-Feb-18 23:00N 32°25' W 062°47'1 2.0 21.6
2018-Feb-18 22:45N 32°25' W 062°46'0 0.0 21.6
2018-Feb-18 22:30N 32°25' W 062°46'1 2.4 21.6
2018-Feb-18 22:00N 32°26' W 062°45'1 4.1 21.7
2018-Feb-18 21:45N 32°26' W 062°46'1 2.0 21.7
2018-Feb-18 21:15N 32°26' W 062°45'0 0.0 21.7
2018-Feb-18 21:00N 32°26' W 062°45'0 0.0 21.7
2018-Feb-18 20:00N 32°26' W 062°45'0 0.0 21.7
2018-Feb-18 19:45N 32°26' W 062°45'0 0.0 21.7
2018-Feb-18 18:15N 32°26' W 062°45'1 4.1 21.7
2018-Feb-18 18:00N 32°26' W 062°44'0 0.0 21.7
2018-Feb-18 15:15N 32°26' W 062°44'1 2.4 21.6
2018-Feb-18 15:00N 32°25' W 062°44'1 0.8 21.6
2018-Feb-18 14:15N 32°26' W 062°44'1 1.0 21.6
2018-Feb-18 13:30N 32°25' W 062°43'0 0.0 21.6
2018-Feb-18 13:15N 32°25' W 062°43'1 2.0 21.6
2018-Feb-18 13:00N 32°25' W 062°43'0 0.0 21.6
2018-Feb-18 12:45N 32°25' W 062°43'1 3.1 21.6
2018-Feb-18 12:30N 32°25' W 062°43'0 0.0 21.6
2018-Feb-18 11:45N 32°25' W 062°43'1 2.4 21.6
2018-Feb-18 11:15N 32°24' W 062°42'0 0.0 21.5
2018-Feb-18 10:00N 32°24' W 062°42'1 3.1 21.5
2018-Feb-18 09:45N 32°23' W 062°41'0 0.0 21.5
2018-Feb-18 09:30N 32°23' W 062°41'2 1.6 21.5
2018-Feb-18 08:30N 32°22' W 062°40'0 0.0 21.4
2018-Feb-18 08:15N 32°22' W 062°40'0 0.0 21.4
2018-Feb-18 08:00N 32°22' W 062°40'5 4.4 21.4
2018-Feb-18 06:45N 32°19' W 062°35'0 0.0 21.5
2018-Feb-18 02:00N 32°19' W 062°35'1 4.1 21.6
2018-Feb-18 01:45N 32°19' W 062°34'0 0.0 21.6
2018-Feb-18 01:15N 32°19' W 062°34'1 4.1 21.6
2018-Feb-18 01:00N 32°19' W 062°32'0 0.0 21.6
2018-Feb-18 00:30N 32°19' W 062°32'2 6.5 21.6
2018-Feb-18 00:15N 32°19' W 062°31'0 0.0 21.6
2018-Feb-18 00:00N 32°19' W 062°31'0 0.0 21.6
2018-Feb-17 23:30N 32°19' W 062°31'0 0.0 21.6
2018-Feb-17 23:15N 32°19' W 062°31'1 2.0 21.6
2018-Feb-17 23:00N 32°19' W 062°30'312.4 21.6
2018-Feb-17 22:45N 32°18' W 062°26'0 0.0 21.6
2018-Feb-17 22:30N 32°18' W 062°26'0 0.0 21.6
2018-Feb-17 22:15N 32°18' W 062°26'0 0.0 21.6
2018-Feb-17 21:30N 32°18' W 062°26'0 0.0 21.7
2018-Feb-17 20:45N 32°18' W 062°26'0 0.0 21.7
2018-Feb-17 20:15N 32°18' W 062°26'1 4.1 21.7
2018-Feb-17 20:00N 32°18' W 062°25'0 0.0 21.7
2018-Feb-17 18:30N 32°18' W 062°25'2 7.8 21.7
2018-Feb-17 18:15N 32°17' W 062°23'1 0.3 21.7
2018-Feb-17 15:30N 32°16' W 062°23'0 0.0 21.6
2018-Feb-17 14:30N 32°16' W 062°23'0 0.0 21.5
2018-Feb-17 14:00N 32°16' W 062°23'1 2.0 21.5
2018-Feb-17 13:45N 32°16' W 062°22'0 0.0 21.5
2018-Feb-17 13:15N 32°16' W 062°22'1 2.0 21.5
2018-Feb-17 13:00N 32°16' W 062°23'0 0.0 21.5
2018-Feb-17 12:45N 32°16' W 062°23'1 1.4 21.5
2018-Feb-17 12:00N 32°16' W 062°22'0 0.0 21.4
2018-Feb-17 11:45N 32°16' W 062°22'1 2.0 21.4
2018-Feb-17 11:30N 32°16' W 062°21'0 0.0 21.4
2018-Feb-17 11:15N 32°16' W 062°21'0 0.0 21.4
2018-Feb-17 10:30N 32°16' W 062°21'1 2.4 21.3
2018-Feb-17 10:15N 32°16' W 062°21'0 0.0 21.3
2018-Feb-17 10:00N 32°16' W 062°21'1 0.4 21.3
2018-Feb-17 08:45N 32°16' W 062°22'1 2.4 21.2
2018-Feb-17 08:30N 32°15' W 062°22'4 2.8 21.2
2018-Feb-17 07:00N 32°11' W 062°22'0 0.0 21.1
2018-Feb-17 02:15N 32°11' W 062°22'1 2.4 21.1
2018-Feb-17 02:00N 32°10' W 062°22'1 1.0 21.1
2018-Feb-17 01:30N 32°10' W 062°21'0 0.0 21.1
2018-Feb-17 01:15N 32°10' W 062°21'1 1.6 21.1
2018-Feb-17 00:45N 32°10' W 062°20'1 2.4 21.2
2018-Feb-17 00:30N 32°09' W 062°20'1 0.8 21.2
2018-Feb-16 23:45N 32°08' W 062°20'0 0.0 21.2
2018-Feb-16 23:30N 32°08' W 062°20'1 3.1 21.2
2018-Feb-16 23:15N 32°09' W 062°20'1 3.1 21.2
2018-Feb-16 23:00N 32°08' W 062°19'0 0.0 21.2
2018-Feb-16 22:45N 32°08' W 062°19'0 0.0 21.2
2018-Feb-16 22:00N 32°08' W 062°19'0 0.0 21.2
2018-Feb-16 21:45N 32°08' W 062°19'1 5.2 21.2
2018-Feb-16 21:30N 32°07' W 062°20'0 0.0 21.2
2018-Feb-16 21:15N 32°07' W 062°20'1 0.8 21.2
2018-Feb-16 20:15N 32°07' W 062°19'0 0.0 21.2
2018-Feb-16 20:00N 32°07' W 062°19'0 0.0 21.2
2018-Feb-16 18:45N 32°07' W 062°19'1 5.2 21.2
2018-Feb-16 18:30N 32°05' W 062°19'0 0.0 21.2
2018-Feb-16 15:00N 32°05' W 062°19'1 4.8 21.1
2018-Feb-16 14:45N 32°04' W 062°19'0 0.0 21.1
2018-Feb-16 14:15N 32°04' W 062°19'0 0.0 21.1
2018-Feb-16 14:00N 32°04' W 062°19'1 1.0 21.1
2018-Feb-16 13:15N 32°04' W 062°18'1 0.8 21.1
2018-Feb-16 12:30N 32°03' W 062°18'0 0.0 21.1
2018-Feb-16 12:15N 32°03' W 062°18'1 1.0 21.1
2018-Feb-16 11:45N 32°03' W 062°19'0 0.0 21.1
2018-Feb-16 11:30N 32°03' W 062°19'1 0.8 21.1
2018-Feb-16 10:45N 32°02' W 062°19'1 3.1 21.1
2018-Feb-16 10:30N 32°02' W 062°18'1 0.9 21.1
2018-Feb-16 09:00N 32°01' W 062°19'0 0.0 21.1
2018-Feb-16 08:45N 32°01' W 062°19'0 0.0 21.1
2018-Feb-16 07:15N 32°01' W 062°19'519.3 21.1
2018-Feb-16 07:00N 31°56' W 062°19'2 0.3 21.1
2018-Feb-16 02:30N 31°56' W 062°17'1 1.7 21.2
2018-Feb-16 01:45N 31°55' W 062°17'0 0.0 21.2
2018-Feb-16 01:00N 31°55' W 062°17'0 0.0 21.2
2018-Feb-16 00:45N 31°55' W 062°17'0 0.0 21.2
2018-Feb-16 00:15N 31°55' W 062°17'1 2.0 21.2
2018-Feb-16 00:00N 31°55' W 062°16'0 0.0 21.3
2018-Feb-15 23:30N 31°55' W 062°16'1 3.1 21.3
2018-Feb-15 23:15N 31°54' W 062°16'0 0.0 21.3
2018-Feb-15 23:00N 31°54' W 062°16'0 0.0 21.3
2018-Feb-15 22:30N 31°54' W 062°16'1 2.0 21.3
2018-Feb-15 22:15N 31°54' W 062°15'1 3.1 21.3
2018-Feb-15 22:00N 31°53' W 062°14'0 0.0 21.3
2018-Feb-15 21:45N 31°53' W 062°14'0 0.0 21.4
2018-Feb-15 21:30N 31°53' W 062°14'0 0.0 21.4
2018-Feb-15 20:45N 31°53' W 062°14'0 0.0 21.4
2018-Feb-15 20:30N 31°53' W 062°14'0 0.0 21.4
2018-Feb-15 20:15N 31°53' W 062°14'1 0.3 21.4
2018-Feb-15 18:45N 31°53' W 062°15'1 0.2 21.5
2018-Feb-15 15:15N 31°53' W 062°15'1 0.8 21.2
2018-Feb-15 14:30N 31°52' W 062°15'1 0.7 21.2
2018-Feb-15 13:45N 31°52' W 062°16'1 3.1 21.1
2018-Feb-15 13:30N 31°52' W 062°15'0 0.0 21.1
2018-Feb-15 13:00N 31°52' W 062°15'1 3.1 21.1
2018-Feb-15 12:45N 31°51' W 062°16'0 0.0 21.1
2018-Feb-15 12:00N 31°51' W 062°16'1 2.4 21.1
2018-Feb-15 11:45N 31°50' W 062°16'1 1.0 21.1
2018-Feb-15 11:15N 31°50' W 062°15'0 0.0 21.1
2018-Feb-15 11:00N 31°50' W 062°15'1 0.8 21.1
2018-Feb-15 09:30N 31°49' W 062°15'1 2.6 21.1
2018-Feb-15 09:00N 31°48' W 062°14'0 0.0 21.1
2018-Feb-15 08:00N 31°48' W 062°14'0 0.0 21.1
2018-Feb-15 07:45N 31°48' W 062°14'1 2.4 21.1
2018-Feb-15 07:30N 31°49' W 062°14'417.1 21.1
2018-Feb-15 07:15N 31°46' W 062°11'0 0.0 21.1
2018-Feb-15 02:45N 31°46' W 062°11'0 0.0 21.1
2018-Feb-15 02:15N 31°46' W 062°11'1 2.4 21.1
2018-Feb-15 02:00N 31°45' W 062°11'1 1.4 21.1
2018-Feb-15 01:15N 31°45' W 062°10'0 0.0 21.1
2018-Feb-15 01:00N 31°45' W 062°10'0 0.0 21.1
2018-Feb-15 00:30N 31°45' W 062°10'0 0.0 21.1
2018-Feb-15 00:15N 31°45' W 062°10'0 0.0 21.1
2018-Feb-15 00:00N 31°45' W 062°10'1 2.0 21.1
2018-Feb-14 23:30N 31°45' W 062°08'0 0.0 21.1
2018-Feb-14 23:15N 31°45' W 062°08'1 4.8 21.1
2018-Feb-14 23:00N 31°44' W 062°08'0 0.0 21.2
2018-Feb-14 22:45N 31°44' W 062°08'1 2.0 21.2
2018-Feb-14 22:30N 31°44' W 062°08'0 0.0 21.2
2018-Feb-14 22:15N 31°44' W 062°08'2 3.2 21.2
2018-Feb-14 21:45N 31°43' W 062°07'1 0.8 21.2
2018-Feb-14 20:45N 31°42' W 062°07'0 0.0 21.2
2018-Feb-14 20:30N 31°42' W 062°07'2 1.6 21.2
2018-Feb-14 19:00N 31°40' W 062°08'0 0.0 21.2
2018-Feb-14 18:45N 31°40' W 062°08'0 0.0 21.2
2018-Feb-14 15:30N 31°40' W 062°08'0 0.0 21.1
2018-Feb-14 15:00N 31°40' W 062°08'1 2.4 21.1
2018-Feb-14 14:45N 31°39' W 062°08'0 0.0 21.1
2018-Feb-14 14:00N 31°39' W 062°08'1 2.4 21.1
2018-Feb-14 13:45N 31°38' W 062°08'0 0.0 21.1
2018-Feb-14 13:15N 31°38' W 062°08'1 5.2 21.1
2018-Feb-14 13:00N 31°37' W 062°07'1 1.6 21.1
2018-Feb-14 12:15N 31°38' W 062°08'1 2.4 21.1
2018-Feb-14 12:00N 31°37' W 062°08'0 0.0 21.1
2018-Feb-14 11:45N 31°37' W 062°08'0 0.0 21.1
2018-Feb-14 11:30N 31°37' W 062°08'1 1.3 21.1
2018-Feb-14 10:30N 31°36' W 062°09'0 0.0 21.2
2018-Feb-14 10:15N 31°36' W 062°09'0 0.0 21.2
2018-Feb-14 10:00N 31°36' W 062°09'1 1.7 21.2
2018-Feb-14 09:15N 31°35' W 062°08'0 0.0 21.2
2018-Feb-14 08:30N 31°35' W 062°08'1 2.0 21.2
2018-Feb-14 08:15N 31°35' W 062°09'0 0.0 21.2
2018-Feb-14 07:45N 31°35' W 062°09'2 7.2 21.2
2018-Feb-14 07:30N 31°33' W 062°09'0 0.0 21.2
2018-Feb-14 02:30N 31°33' W 062°09'1 0.8 21.2
2018-Feb-14 01:30N 31°32' W 062°10'0 0.0 21.2
2018-Feb-14 01:00N 31°32' W 062°10'1 2.0 21.2
2018-Feb-14 00:45N 31°32' W 062°09'0 0.0 21.2
2018-Feb-14 00:00N 31°32' W 062°09'1 4.1 21.2
2018-Feb-13 23:45N 31°32' W 062°10'0 0.0 21.2
2018-Feb-13 23:30N 31°32' W 062°10'0 0.0 21.2
2018-Feb-13 23:15N 31°32' W 062°10'0 0.0 21.2
2018-Feb-13 23:00N 31°32' W 062°10'0 0.0 21.3
2018-Feb-13 22:45N 31°32' W 062°10'1 0.8 21.3
2018-Feb-13 22:00N 31°32' W 062°10'0 0.0 21.3
2018-Feb-13 21:45N 31°32' W 062°10'0 0.0 21.3
2018-Feb-13 21:30N 31°32' W 062°10'1 3.2 21.3
2018-Feb-13 21:15N 31°31' W 062°11'0 0.0 21.4
2018-Feb-13 21:00N 31°31' W 062°11'0 0.0 21.4
2018-Feb-13 20:45N 31°31' W 062°11'1 0.7 21.4
2018-Feb-13 19:15N 31°31' W 062°12'0 0.0 21.4
2018-Feb-13 19:00N 31°31' W 062°12'4 1.0 21.4
2018-Feb-13 15:15N 31°28' W 062°14'0 0.0 21.2
2018-Feb-13 15:00N 31°28' W 062°14'0 0.0 21.2
2018-Feb-13 14:15N 31°28' W 062°14'0 0.0 21.2
2018-Feb-13 14:00N 31°28' W 062°14'1 2.4 21.2
2018-Feb-13 13:30N 31°28' W 062°16'0 0.0 21.1
2018-Feb-13 12:15N 31°28' W 062°16'0 0.0 21.1
2018-Feb-13 12:00N 31°28' W 062°16'   21.1

Dump ship's entire track history